sensor_id;sensor_type;location;lat;lon;timestamp;pressure;altitude;pressure_sealevel;temperature;humidity
55660;BME280;41534;53.550;9.964;2024-02-16T00:00:36;100938.56;;;22.94;49.85
55660;BME280;41534;53.550;9.964;2024-02-16T00:03:36;100934.38;;;22.92;50.09
55660;BME280;41534;53.550;9.964;2024-02-16T00:06:37;100930.97;;;22.90;49.98
55660;BME280;41534;53.550;9.964;2024-02-16T00:09:37;100933.91;;;22.88;49.99
55660;BME280;41534;53.550;9.964;2024-02-16T00:12:37;100918.78;;;22.85;49.92
55660;BME280;41534;53.550;9.964;2024-02-16T00:15:38;100926.34;;;22.83;50.15
55660;BME280;41534;53.550;9.964;2024-02-16T00:18:38;100915.78;;;22.80;50.09
55660;BME280;41534;53.550;9.964;2024-02-16T00:21:38;100914.53;;;22.76;49.97
55660;BME280;41534;53.550;9.964;2024-02-16T00:24:39;100908.44;;;22.74;50.06
55660;BME280;41534;53.550;9.964;2024-02-16T00:27:39;100899.56;;;22.72;50.15
55660;BME280;41534;53.550;9.964;2024-02-16T00:30:39;100900.81;;;22.70;50.12
55660;BME280;41534;53.550;9.964;2024-02-16T00:33:40;100894.72;;;22.68;50.09
55660;BME280;41534;53.550;9.964;2024-02-16T00:36:40;100899.56;;;22.66;50.19
55660;BME280;41534;53.550;9.964;2024-02-16T00:39:40;100897.03;;;22.64;50.01
55660;BME280;41534;53.550;9.964;2024-02-16T00:42:40;100892.19;;;22.60;50.32
55660;BME280;41534;53.550;9.964;2024-02-16T00:45:41;100884.41;;;22.56;49.99
55660;BME280;41534;53.550;9.964;2024-02-16T00:48:41;100881.22;;;22.53;50.04
55660;BME280;41534;53.550;9.964;2024-02-16T00:51:41;100877.00;;;22.50;49.69
55660;BME280;41534;53.550;9.964;2024-02-16T00:54:41;100886.66;;;22.46;49.74
55660;BME280;41534;53.550;9.964;2024-02-16T00:57:42;100883.50;;;22.43;49.72
55660;BME280;41534;53.550;9.964;2024-02-16T01:00:42;100883.72;;;22.41;50.13
55660;BME280;41534;53.550;9.964;2024-02-16T01:03:43;100882.22;;;22.39;50.05
55660;BME280;41534;53.550;9.964;2024-02-16T01:06:43;100878.63;;;22.38;50.02
55660;BME280;41534;53.550;9.964;2024-02-16T01:09:44;100878.22;;;22.35;49.82
55660;BME280;41534;53.550;9.964;2024-02-16T01:12:44;100876.72;;;22.32;49.91
55660;BME280;41534;53.550;9.964;2024-02-16T01:15:44;100876.94;;;22.31;49.80
55660;BME280;41534;53.550;9.964;2024-02-16T01:18:44;100877.16;;;22.29;50.02
55660;BME280;41534;53.550;9.964;2024-02-16T01:21:45;100888.47;;;22.26;49.91
55660;BME280;41534;53.550;9.964;2024-02-16T01:24:45;100892.25;;;22.25;49.58
55660;BME280;41534;53.550;9.964;2024-02-16T01:27:45;100881.75;;;22.22;49.78
55660;BME280;41534;53.550;9.964;2024-02-16T01:30:46;100873.94;;;22.19;49.44
55660;BME280;41534;53.550;9.964;2024-02-16T01:33:46;100868.69;;;22.17;49.57
55660;BME280;41534;53.550;9.964;2024-02-16T01:36:46;100862.78;;;22.14;49.36
55660;BME280;41534;53.550;9.964;2024-02-16T01:39:46;100854.81;;;22.12;49.10
55660;BME280;41534;53.550;9.964;2024-02-16T01:42:47;100855.22;;;22.09;49.19
55660;BME280;41534;53.550;9.964;2024-02-16T01:45:47;100860.03;;;22.07;48.89
55660;BME280;41534;53.550;9.964;2024-02-16T01:48:48;100850.38;;;22.05;49.06
55660;BME280;41534;53.550;9.964;2024-02-16T01:51:48;100857.00;;;22.02;48.96
55660;BME280;41534;53.550;9.964;2024-02-16T01:54:48;100858.25;;;22.00;49.03
55660;BME280;41534;53.550;9.964;2024-02-16T01:57:49;100854.06;;;21.97;48.93
55660;BME280;41534;53.550;9.964;2024-02-16T02:00:49;100838.94;;;21.94;48.87
55660;BME280;41534;53.550;9.964;2024-02-16T02:03:49;100830.13;;;21.92;48.92
55660;BME280;41534;53.550;9.964;2024-02-16T02:06:50;100827.59;;;21.91;48.57
55660;BME280;41534;53.550;9.964;2024-02-16T02:09:50;100823.38;;;21.88;48.70
55660;BME280;41534;53.550;9.964;2024-02-16T02:12:50;100813.53;;;21.87;48.64
55660;BME280;41534;53.550;9.964;2024-02-16T02:15:50;100816.41;;;21.86;48.68
55660;BME280;41534;53.550;9.964;2024-02-16T02:18:51;100812.00;;;21.85;48.82
55660;BME280;41534;53.550;9.964;2024-02-16T02:21:51;100806.13;;;21.81;48.64
55660;BME280;41534;53.550;9.964;2024-02-16T02:24:51;100806.13;;;21.81;48.48
55660;BME280;41534;53.550;9.964;2024-02-16T02:27:51;100802.75;;;21.79;48.49
55660;BME280;41534;53.550;9.964;2024-02-16T02:30:52;100810.94;;;21.79;48.38
55660;BME280;41534;53.550;9.964;2024-02-16T02:33:52;100806.72;;;21.77;48.63
55660;BME280;41534;53.550;9.964;2024-02-16T02:36:52;100804.22;;;21.75;48.34
55660;BME280;41534;53.550;9.964;2024-02-16T02:39:53;100805.25;;;21.74;48.39
55660;BME280;41534;53.550;9.964;2024-02-16T02:42:53;100797.28;;;21.73;48.40
55660;BME280;41534;53.550;9.964;2024-02-16T02:45:53;100793.91;;;21.71;48.44
55660;BME280;41534;53.550;9.964;2024-02-16T02:48:53;100783.19;;;21.69;47.93
55660;BME280;41534;53.550;9.964;2024-02-16T02:51:54;100792.41;;;21.68;48.51
55660;BME280;41534;53.550;9.964;2024-02-16T02:54:54;100783.59;;;21.66;48.26
55660;BME280;41534;53.550;9.964;2024-02-16T02:57:54;100782.94;;;21.64;48.29
55660;BME280;41534;53.550;9.964;2024-02-16T03:00:55;100781.25;;;21.63;48.21
55660;BME280;41534;53.550;9.964;2024-02-16T03:03:55;100773.28;;;21.61;48.05
55660;BME280;41534;53.550;9.964;2024-02-16T03:06:56;100765.31;;;21.60;48.22
55660;BME280;41534;53.550;9.964;2024-02-16T03:09:56;100768.25;;;21.58;48.19
55660;BME280;41534;53.550;9.964;2024-02-16T03:12:56;100757.53;;;21.57;48.15
55660;BME280;41534;53.550;9.964;2024-02-16T03:15:56;100754.16;;;21.55;47.99
55660;BME280;41534;53.550;9.964;2024-02-16T03:18:57;100749.75;;;21.54;48.01
55660;BME280;41534;53.550;9.964;2024-02-16T03:21:57;100739.91;;;21.53;47.94
55660;BME280;41534;53.550;9.964;2024-02-16T03:24:57;100732.94;;;21.50;48.00
55660;BME280;41534;53.550;9.964;2024-02-16T03:27:58;100726.66;;;21.50;48.03
55660;BME280;41534;53.550;9.964;2024-02-16T03:30:58;100733.13;;;21.49;48.34
55660;BME280;41534;53.550;9.964;2024-02-16T03:33:58;100729.78;;;21.47;48.00
55660;BME280;41534;53.550;9.964;2024-02-16T03:36:59;100727.47;;;21.44;48.11
55660;BME280;41534;53.550;9.964;2024-02-16T03:39:59;100729.13;;;21.45;48.11
55660;BME280;41534;53.550;9.964;2024-02-16T03:42:59;100724.94;;;21.42;48.09
55660;BME280;41534;53.550;9.964;2024-02-16T03:46:00;100731.44;;;21.41;48.08
55660;BME280;41534;53.550;9.964;2024-02-16T03:49:00;100734.34;;;21.40;48.00
55660;BME280;41534;53.550;9.964;2024-02-16T03:52:00;100731.00;;;21.38;48.05
55660;BME280;41534;53.550;9.964;2024-02-16T03:55:01;100729.31;;;21.36;47.79
55660;BME280;41534;53.550;9.964;2024-02-16T03:58:01;100730.38;;;21.35;48.02
55660;BME280;41534;53.550;9.964;2024-02-16T04:01:01;100728.66;;;21.34;47.92
55660;BME280;41534;53.550;9.964;2024-02-16T04:04:01;100720.88;;;21.31;48.00
55660;BME280;41534;53.550;9.964;2024-02-16T04:07:03;100723.59;;;21.31;47.51
55660;BME280;41534;53.550;9.964;2024-02-16T04:10:04;100722.75;;;21.31;47.98
55660;BME280;41534;53.550;9.964;2024-02-16T04:13:04;100718.56;;;21.28;48.06
55660;BME280;41534;53.550;9.964;2024-02-16T04:16:05;100716.03;;;21.27;47.79
55660;BME280;41534;53.550;9.964;2024-02-16T04:19:05;100708.91;;;21.26;47.94
55660;BME280;41534;53.550;9.964;2024-02-16T04:22:05;100710.97;;;21.24;48.04
55660;BME280;41534;53.550;9.964;2024-02-16T04:25:06;100711.81;;;21.24;48.05
55660;BME280;41534;53.550;9.964;2024-02-16T04:28:06;100713.03;;;21.22;47.97
55660;BME280;41534;53.550;9.964;2024-02-16T04:31:06;100717.66;;;21.21;48.03
55660;BME280;41534;53.550;9.964;2024-02-16T04:34:07;100712.41;;;21.20;47.88
55660;BME280;41534;53.550;9.964;2024-02-16T04:37:07;100717.84;;;21.20;48.08
55660;BME280;41534;53.550;9.964;2024-02-16T04:40:08;100706.31;;;21.18;47.76
55660;BME280;41534;53.550;9.964;2024-02-16T04:43:08;100713.63;;;21.17;47.97
55660;BME280;41534;53.550;9.964;2024-02-16T04:46:14;100710.25;;;21.15;47.76
55660;BME280;41534;53.550;9.964;2024-02-16T04:49:14;100709.41;;;21.15;47.87
55660;BME280;41534;53.550;9.964;2024-02-16T04:52:14;100710.47;;;21.14;47.92
55660;BME280;41534;53.550;9.964;2024-02-16T04:55:15;100711.50;;;21.13;47.91
55660;BME280;41534;53.550;9.964;2024-02-16T04:58:16;100700.81;;;21.11;47.97
55660;BME280;41534;53.550;9.964;2024-02-16T05:01:16;100702.69;;;21.11;47.56
55660;BME280;41534;53.550;9.964;2024-02-16T05:04:16;100696.59;;;21.08;47.80
55660;BME280;41534;53.550;9.964;2024-02-16T05:07:17;100699.53;;;21.07;47.70
55660;BME280;41534;53.550;9.964;2024-02-16T05:10:17;100686.94;;;21.06;47.70
55660;BME280;41534;53.550;9.964;2024-02-16T05:13:17;100699.72;;;21.05;47.91
55660;BME280;41534;53.550;9.964;2024-02-16T05:16:17;100694.47;;;21.04;47.72
55660;BME280;41534;53.550;9.964;2024-02-16T05:19:18;100697.41;;;21.02;47.73
55660;BME280;41534;53.550;9.964;2024-02-16T05:22:18;100691.97;;;21.02;47.65
55660;BME280;41534;53.550;9.964;2024-02-16T05:25:18;100700.34;;;21.01;47.82
55660;BME280;41534;53.550;9.964;2024-02-16T05:28:19;100682.28;;;21.00;47.90
55660;BME280;41534;53.550;9.964;2024-02-16T05:31:19;100684.34;;;20.98;47.83
55660;BME280;41534;53.550;9.964;2024-02-16T05:34:20;100679.13;;;20.96;47.75
55660;BME280;41534;53.550;9.964;2024-02-16T05:37:20;100682.69;;;20.97;47.76
55660;BME280;41534;53.550;9.964;2024-02-16T05:40:21;100683.72;;;20.96;47.82
55660;BME280;41534;53.550;9.964;2024-02-16T05:43:21;100678.47;;;20.94;47.81
55660;BME280;41534;53.550;9.964;2024-02-16T05:46:21;100674.25;;;20.92;47.73
55660;BME280;41534;53.550;9.964;2024-02-16T05:49:21;100678.03;;;20.91;47.77
55660;BME280;41534;53.550;9.964;2024-02-16T05:52:22;100681.81;;;20.90;47.84
55660;BME280;41534;53.550;9.964;2024-02-16T05:55:22;100676.34;;;20.90;47.74
55660;BME280;41534;53.550;9.964;2024-02-16T05:58:23;100691.84;;;20.89;47.89
55660;BME280;41534;53.550;9.964;2024-02-16T06:01:23;100696.66;;;20.87;47.73
55660;BME280;41534;53.550;9.964;2024-02-16T06:04:24;100694.78;;;20.88;47.83
55660;BME280;41534;53.550;9.964;2024-02-16T06:07:24;100697.72;;;20.86;47.81
55660;BME280;41534;53.550;9.964;2024-02-16T06:10:25;100690.78;;;20.84;47.69
55660;BME280;41534;53.550;9.964;2024-02-16T06:13:25;100693.50;;;20.84;47.66
55660;BME280;41534;53.550;9.964;2024-02-16T06:18:02;100692.81;;;20.82;47.77
55660;BME280;41534;53.550;9.964;2024-02-16T06:21:03;100687.56;;;20.80;47.74
55660;BME280;41534;53.550;9.964;2024-02-16T06:24:04;100689.25;;;20.81;47.68
55660;BME280;41534;53.550;9.964;2024-02-16T06:27:04;100678.78;;;20.78;47.62
55660;BME280;41534;53.550;9.964;2024-02-16T06:30:05;100682.34;;;20.78;48.07
55660;BME280;41534;53.550;9.964;2024-02-16T06:33:05;100682.53;;;20.77;47.71
55660;BME280;41534;53.550;9.964;2024-02-16T06:36:06;100687.34;;;20.75;47.66
55660;BME280;41534;53.550;9.964;2024-02-16T06:39:06;100695.50;;;20.75;47.61
55660;BME280;41534;53.550;9.964;2024-02-16T06:42:06;100693.81;;;20.74;47.48
55660;BME280;41534;53.550;9.964;2024-02-16T06:45:07;100692.16;;;20.73;47.58
55660;BME280;41534;53.550;9.964;2024-02-16T06:48:07;100700.50;;;20.71;47.67
55660;BME280;41534;53.550;9.964;2024-02-16T06:51:08;100702.41;;;20.71;47.68
55660;BME280;41534;53.550;9.964;2024-02-16T06:54:08;100696.09;;;20.70;47.53
55660;BME280;41534;53.550;9.964;2024-02-16T06:57:08;100697.16;;;20.69;47.64
55660;BME280;41534;53.550;9.964;2024-02-16T07:00:09;100692.75;;;20.68;47.36
55660;BME280;41534;53.550;9.964;2024-02-16T07:03:09;100685.81;;;20.66;47.58
55660;BME280;41534;53.550;9.964;2024-02-16T07:06:10;100693.16;;;20.65;47.52
55660;BME280;41534;53.550;9.964;2024-02-16T07:09:10;100703.16;;;20.65;47.65
55660;BME280;41534;53.550;9.964;2024-02-16T07:12:10;100704.19;;;20.64;47.51
55660;BME280;41534;53.550;9.964;2024-02-16T07:15:11;100711.53;;;20.63;47.45
55660;BME280;41534;53.550;9.964;2024-02-16T07:18:11;100707.13;;;20.62;47.62
55660;BME280;41534;53.550;9.964;2024-02-16T07:21:12;100715.28;;;20.62;47.55
55660;BME280;41534;53.550;9.964;2024-02-16T07:24:12;100716.34;;;20.61;47.48
55660;BME280;41534;53.550;9.964;2024-02-16T07:27:12;100711.09;;;20.60;47.49
55660;BME280;41534;53.550;9.964;2024-02-16T07:30:13;100717.38;;;20.60;47.47
55660;BME280;41534;53.550;9.964;2024-02-16T07:33:13;100707.53;;;20.59;47.95
55660;BME280;41534;53.550;9.964;2024-02-16T07:36:14;100715.50;;;20.61;47.94
55660;BME280;41534;53.550;9.964;2024-02-16T07:39:14;100709.19;;;20.60;47.65
55660;BME280;41534;53.550;9.964;2024-02-16T07:42:14;100711.09;;;20.60;47.72
55660;BME280;41534;53.550;9.964;2024-02-16T07:45:15;100712.13;;;20.59;47.65
55660;BME280;41534;53.550;9.964;2024-02-16T07:48:15;100721.13;;;20.59;47.55
55660;BME280;41534;53.550;9.964;2024-02-16T07:51:15;100721.34;;;20.58;47.58
55660;BME280;41534;53.550;9.964;2024-02-16T07:54:16;100725.94;;;20.57;47.55
55660;BME280;41534;53.550;9.964;2024-02-16T07:57:17;100723.22;;;20.57;47.50
55660;BME280;41534;53.550;9.964;2024-02-16T08:00:18;100730.53;;;20.57;47.66
55660;BME280;41534;53.550;9.964;2024-02-16T08:03:18;100725.94;;;20.57;47.37
55660;BME280;41534;53.550;9.964;2024-02-16T08:06:18;100717.75;;;20.57;47.58
55660;BME280;41534;53.550;9.964;2024-02-16T08:09:19;100716.09;;;20.56;47.64
55660;BME280;41534;53.550;9.964;2024-02-16T08:12:19;100711.88;;;20.54;47.44
55660;BME280;41534;53.550;9.964;2024-02-16T08:15:19;100707.28;;;20.54;47.54
55660;BME280;41534;53.550;9.964;2024-02-16T08:18:19;100705.41;;;20.55;47.41
55660;BME280;41534;53.550;9.964;2024-02-16T08:21:20;100698.25;;;20.54;47.37
55660;BME280;41534;53.550;9.964;2024-02-16T08:24:20;100692.81;;;20.54;47.52
55660;BME280;41534;53.550;9.964;2024-02-16T08:27:20;100691.13;;;20.53;47.54
55660;BME280;41534;53.550;9.964;2024-02-16T08:30:21;100687.56;;;20.52;47.50
55660;BME280;41534;53.550;9.964;2024-02-16T08:33:21;100688.63;;;20.51;47.44
55660;BME280;41534;53.550;9.964;2024-02-16T08:36:21;100694.06;;;20.51;47.29
55660;BME280;41534;53.550;9.964;2024-02-16T08:39:22;100695.09;;;20.50;47.28
55660;BME280;41534;53.550;9.964;2024-02-16T08:42:22;100702.44;;;20.50;47.45
55660;BME280;41534;53.550;9.964;2024-02-16T08:45:22;100702.63;;;20.48;47.25
55660;BME280;41534;53.550;9.964;2024-02-16T08:48:24;100699.91;;;20.48;47.27
55660;BME280;41534;53.550;9.964;2024-02-16T08:51:24;100690.84;;;20.47;47.23
55660;BME280;41534;53.550;9.964;2024-02-16T08:54:25;100698.19;;;20.47;47.32
55660;BME280;41534;53.550;9.964;2024-02-16T08:57:25;100691.06;;;20.46;47.32
55660;BME280;41534;53.550;9.964;2024-02-16T09:00:25;100690.41;;;20.44;47.35
55660;BME280;41534;53.550;9.964;2024-02-16T09:03:26;100692.09;;;20.45;47.30
55660;BME280;41534;53.550;9.964;2024-02-16T09:06:29;100688.53;;;20.44;47.26
55660;BME280;41534;53.550;9.964;2024-02-16T09:09:29;100689.56;;;20.43;47.44
55660;BME280;41534;53.550;9.964;2024-02-16T09:12:29;100697.75;;;20.43;47.34
55660;BME280;41534;53.550;9.964;2024-02-16T09:15:30;100691.47;;;20.43;47.30
55660;BME280;41534;53.550;9.964;2024-02-16T09:18:30;100697.75;;;20.43;47.34
55660;BME280;41534;53.550;9.964;2024-02-16T09:21:30;100688.09;;;20.41;47.20
55660;BME280;41534;53.550;9.964;2024-02-16T09:24:31;100686.22;;;20.41;47.42
55660;BME280;41534;53.550;9.964;2024-02-16T09:27:31;100682.66;;;20.41;47.24
55660;BME280;41534;53.550;9.964;2024-02-16T09:30:31;100682.44;;;20.42;47.76
55660;BME280;41534;53.550;9.964;2024-02-16T09:33:31;100683.09;;;20.44;47.83
55660;BME280;41534;53.550;9.964;2024-02-16T09:36:32;100677.09;;;20.49;48.01
55660;BME280;41534;53.550;9.964;2024-02-16T09:39:32;100686.13;;;20.56;48.08
55660;BME280;41534;53.550;9.964;2024-02-16T09:42:36;100692.09;;;20.66;48.38
55660;BME280;41534;53.550;9.964;2024-02-16T09:45:37;100701.00;;;20.82;48.45
55660;BME280;41534;53.550;9.964;2024-02-16T09:48:39;100689.44;;;21.01;48.36
55660;BME280;41534;53.550;9.964;2024-02-16T09:51:39;100700.66;;;21.19;48.06
55660;BME280;41534;53.550;9.964;2024-02-16T09:54:40;100701.00;;;21.38;48.25
55660;BME280;41534;53.550;9.964;2024-02-16T09:57:40;100696.44;;;21.51;48.01
55660;BME280;41534;53.550;9.964;2024-02-16T10:00:41;100692.75;;;21.65;47.96
55660;BME280;41534;53.550;9.964;2024-02-16T10:03:43;100694.28;;;21.81;47.81
55660;BME280;41534;53.550;9.964;2024-02-16T10:06:46;100695.16;;;21.95;47.95
55660;BME280;41534;53.550;9.964;2024-02-16T10:09:47;100691.69;;;22.08;47.59
55660;BME280;41534;53.550;9.964;2024-02-16T10:12:48;100700.50;;;22.16;47.35
55660;BME280;41534;53.550;9.964;2024-02-16T10:15:48;100699.88;;;22.21;47.43
55660;BME280;41534;53.550;9.964;2024-02-16T10:18:49;100699.06;;;22.27;47.52
55660;BME280;41534;53.550;9.964;2024-02-16T10:21:49;100709.34;;;22.32;47.62
55660;BME280;41534;53.550;9.964;2024-02-16T10:24:49;100713.97;;;22.38;47.81
55660;BME280;41534;53.550;9.964;2024-02-16T10:27:49;100718.00;;;22.42;47.74
55660;BME280;41534;53.550;9.964;2024-02-16T10:30:50;100713.59;;;22.47;47.95
55660;BME280;41534;53.550;9.964;2024-02-16T10:33:50;100716.72;;;22.51;47.88
55660;BME280;41534;53.550;9.964;2024-02-16T10:36:51;100711.06;;;22.52;47.54
55660;BME280;41534;53.550;9.964;2024-02-16T10:39:53;100712.53;;;22.48;46.14
55660;BME280;41534;53.550;9.964;2024-02-16T10:42:55;100713.22;;;22.03;44.76
55660;BME280;41534;53.550;9.964;2024-02-16T10:45:56;100715.47;;;21.79;43.98
55660;BME280;41534;53.550;9.964;2024-02-16T10:48:57;100717.88;;;21.54;43.47
55660;BME280;41534;53.550;9.964;2024-02-16T10:51:58;100712.47;;;21.26;42.72
55660;BME280;41534;53.550;9.964;2024-02-16T10:55:00;100703.28;;;21.06;42.89
55660;BME280;41534;53.550;9.964;2024-02-16T10:58:00;100701.31;;;20.93;42.93
55660;BME280;41534;53.550;9.964;2024-02-16T11:01:08;100700.06;;;20.68;42.39
55660;BME280;41534;53.550;9.964;2024-02-16T11:04:15;100708.53;;;20.37;42.67
55660;BME280;41534;53.550;9.964;2024-02-16T11:07:17;100703.28;;;20.14;43.34
55660;BME280;41534;53.550;9.964;2024-02-16T11:10:17;100703.78;;;20.03;43.67
55660;BME280;41534;53.550;9.964;2024-02-16T11:13:22;100693.41;;;19.92;44.01
55660;BME280;41534;53.550;9.964;2024-02-16T11:16:22;100702.34;;;19.85;43.93
55660;BME280;41534;53.550;9.964;2024-02-16T11:19:22;100701.59;;;19.77;44.42
55660;BME280;41534;53.550;9.964;2024-02-16T11:22:27;100693.94;;;19.66;44.68
55660;BME280;41534;53.550;9.964;2024-02-16T11:25:30;100700.13;;;19.60;44.80
55660;BME280;41534;53.550;9.964;2024-02-16T11:28:32;100688.13;;;19.54;44.96
55660;BME280;41534;53.550;9.964;2024-02-16T11:31:32;100695.16;;;19.48;45.21
55660;BME280;41534;53.550;9.964;2024-02-16T11:34:33;100704.03;;;19.42;45.47
55660;BME280;41534;53.550;9.964;2024-02-16T11:37:34;100686.41;;;19.53;45.69
55660;BME280;41534;53.550;9.964;2024-02-16T11:40:34;100698.78;;;19.70;45.98
55660;BME280;41534;53.550;9.964;2024-02-16T11:43:35;100690.22;;;19.88;46.05
55660;BME280;41534;53.550;9.964;2024-02-16T11:46:35;100690.06;;;20.11;46.04
55660;BME280;41534;53.550;9.964;2024-02-16T11:49:35;100702.06;;;20.38;46.06
55660;BME280;41534;53.550;9.964;2024-02-16T11:52:36;100702.16;;;20.66;46.05
55660;BME280;41534;53.550;9.964;2024-02-16T11:55:36;100698.19;;;20.96;46.09
55660;BME280;41534;53.550;9.964;2024-02-16T11:58:36;100702.34;;;21.20;46.04
55660;BME280;41534;53.550;9.964;2024-02-16T12:01:48;100697.03;;;21.40;45.88
55660;BME280;41534;53.550;9.964;2024-02-16T12:04:48;100694.19;;;21.55;45.67
55660;BME280;41534;53.550;9.964;2024-02-16T12:07:57;100697.78;;;21.68;45.84
55660;BME280;41534;53.550;9.964;2024-02-16T12:10:57;100704.34;;;21.81;45.34
55660;BME280;41534;53.550;9.964;2024-02-16T12:13:58;100700.41;;;21.90;45.49
55660;BME280;41534;53.550;9.964;2024-02-16T12:16:59;100697.06;;;22.01;45.11
55660;BME280;41534;53.550;9.964;2024-02-16T12:19:59;100695.03;;;22.10;45.37
55660;BME280;41534;53.550;9.964;2024-02-16T12:23:10;100703.66;;;22.20;45.08
55660;BME280;41534;53.550;9.964;2024-02-16T12:26:10;100707.25;;;22.27;45.24
55660;BME280;41534;53.550;9.964;2024-02-16T12:29:11;100708.31;;;22.33;45.50
55660;BME280;41534;53.550;9.964;2024-02-16T12:32:13;100705.41;;;22.41;45.51
55660;BME280;41534;53.550;9.964;2024-02-16T12:35:13;100701.59;;;22.48;45.60
55660;BME280;41534;53.550;9.964;2024-02-16T12:38:13;100698.88;;;22.55;45.33
55660;BME280;41534;53.550;9.964;2024-02-16T12:41:14;100705.19;;;22.62;45.45
55660;BME280;41534;53.550;9.964;2024-02-16T12:44:14;100708.13;;;22.67;45.47
55660;BME280;41534;53.550;9.964;2024-02-16T12:47:15;100714.63;;;22.73;45.42
55660;BME280;41534;53.550;9.964;2024-02-16T12:50:15;100714.47;;;22.74;45.39
55660;BME280;41534;53.550;9.964;2024-02-16T12:53:15;100726.00;;;22.76;45.42
55660;BME280;41534;53.550;9.964;2024-02-16T12:56:16;100713.19;;;22.77;45.49
55660;BME280;41534;53.550;9.964;2024-02-16T12:59:16;100722.44;;;22.76;45.81
55660;BME280;41534;53.550;9.964;2024-02-16T13:02:17;100721.59;;;22.75;45.46
55660;BME280;41534;53.550;9.964;2024-02-16T13:05:17;100709.84;;;22.75;45.79
55660;BME280;41534;53.550;9.964;2024-02-16T13:08:17;100720.09;;;22.73;45.77
55660;BME280;41534;53.550;9.964;2024-02-16T13:11:17;100713.78;;;22.72;45.89
55660;BME280;41534;53.550;9.964;2024-02-16T13:14:18;100719.47;;;22.71;46.01
55660;BME280;41534;53.550;9.964;2024-02-16T13:17:18;100716.75;;;22.71;46.00
55660;BME280;41534;53.550;9.964;2024-02-16T13:20:18;100724.94;;;22.71;46.30
55660;BME280;41534;53.550;9.964;2024-02-16T13:23:19;100728.28;;;22.73;46.37
55660;BME280;41534;53.550;9.964;2024-02-16T13:26:19;100717.19;;;22.74;46.31
55660;BME280;41534;53.550;9.964;2024-02-16T13:29:19;100731.25;;;22.78;46.23
55660;BME280;41534;53.550;9.964;2024-02-16T13:32:19;100719.91;;;22.81;46.58
55660;BME280;41534;53.550;9.964;2024-02-16T13:35:20;100723.31;;;22.83;46.36
55660;BME280;41534;53.550;9.964;2024-02-16T13:38:20;100735.91;;;22.84;46.32
55660;BME280;41534;53.550;9.964;2024-02-16T13:41:20;100736.13;;;22.82;46.18
55660;BME280;41534;53.550;9.964;2024-02-16T13:44:21;100740.75;;;22.82;45.93
55660;BME280;41534;53.550;9.964;2024-02-16T13:47:22;100735.47;;;22.80;46.05
55660;BME280;41534;53.550;9.964;2024-02-16T13:50:22;100735.69;;;22.79;46.13
55660;BME280;41534;53.550;9.964;2024-02-16T13:53:23;100736.72;;;22.78;46.46
55660;BME280;41534;53.550;9.964;2024-02-16T13:56:23;100744.72;;;22.79;46.75
55660;BME280;41534;53.550;9.964;2024-02-16T13:59:23;100747.22;;;22.81;46.52
55660;BME280;41534;53.550;9.964;2024-02-16T14:02:24;100750.41;;;22.84;46.62
55660;BME280;41534;53.550;9.964;2024-02-16T14:05:24;100749.78;;;22.89;46.51
55660;BME280;41534;53.550;9.964;2024-02-16T14:08:25;100750.63;;;22.96;46.71
55660;BME280;41534;53.550;9.964;2024-02-16T14:11:25;100745.16;;;23.03;46.54
55660;BME280;41534;53.550;9.964;2024-02-16T14:14:25;100753.53;;;23.08;46.52
55660;BME280;41534;53.550;9.964;2024-02-16T14:17:25;100756.09;;;23.09;46.66
55660;BME280;41534;53.550;9.964;2024-02-16T14:20:26;100755.03;;;23.10;46.58
55660;BME280;41534;53.550;9.964;2024-02-16T14:23:26;100766.59;;;23.12;46.70
55660;BME280;41534;53.550;9.964;2024-02-16T14:26:26;100769.34;;;23.12;46.59
55660;BME280;41534;53.550;9.964;2024-02-16T14:29:27;100773.13;;;23.11;46.67
55660;BME280;41534;53.550;9.964;2024-02-16T14:32:27;100781.53;;;23.10;46.51
55660;BME280;41534;53.550;9.964;2024-02-16T14:35:27;100779.03;;;23.08;46.75
55660;BME280;41534;53.550;9.964;2024-02-16T14:38:27;100792.03;;;23.06;46.81
55660;BME280;41534;53.550;9.964;2024-02-16T14:41:28;100789.72;;;23.03;46.83
55660;BME280;41534;53.550;9.964;2024-02-16T14:44:28;100801.91;;;23.01;47.01
55660;BME280;41534;53.550;9.964;2024-02-16T14:47:28;100797.72;;;22.98;47.04
55660;BME280;41534;53.550;9.964;2024-02-16T14:50:29;100802.34;;;22.98;46.95
55660;BME280;41534;53.550;9.964;2024-02-16T14:53:29;100811.59;;;22.97;47.06
55660;BME280;41534;53.550;9.964;2024-02-16T14:56:30;100804.88;;;22.99;46.92
55660;BME280;41534;53.550;9.964;2024-02-16T14:59:30;100814.94;;;23.05;47.09
55660;BME280;41534;53.550;9.964;2024-02-16T15:02:30;100824.00;;;23.12;46.90
55660;BME280;41534;53.550;9.964;2024-02-16T15:05:30;100823.78;;;23.21;46.88
55660;BME280;41534;53.550;9.964;2024-02-16T15:08:31;100823.81;;;23.27;47.05
55660;BME280;41534;53.550;9.964;2024-02-16T15:11:31;100827.56;;;23.33;46.65
55660;BME280;41534;53.550;9.964;2024-02-16T15:14:31;100821.69;;;23.36;46.99
55660;BME280;41534;53.550;9.964;2024-02-16T15:17:32;100835.97;;;23.38;46.73
55660;BME280;41534;53.550;9.964;2024-02-16T15:20:32;100834.94;;;23.39;46.74
55660;BME280;41534;53.550;9.964;2024-02-16T15:23:32;100835.97;;;23.38;46.69
55660;BME280;41534;53.550;9.964;2024-02-16T15:26:32;100845.25;;;23.37;46.79
55660;BME280;41534;53.550;9.964;2024-02-16T15:29:33;100836.41;;;23.35;46.72
55660;BME280;41534;53.550;9.964;2024-02-16T15:32:33;100850.28;;;23.33;46.89
55660;BME280;41534;53.550;9.964;2024-02-16T15:35:35;100854.28;;;23.31;46.73
55660;BME280;41534;53.550;9.964;2024-02-16T15:38:36;100871.13;;;23.28;47.01
55660;BME280;41534;53.550;9.964;2024-02-16T15:41:36;100874.25;;;23.25;46.81
55660;BME280;41534;53.550;9.964;2024-02-16T15:44:36;100881.00;;;23.22;46.68